sensor_id;sensor_type;location;lat;lon;timestamp;P1;durP1;ratioP1;P2;durP2;ratioP2
12774;SDS011;6451;42.630;23.382;2023-05-07T00:02:08;6.03;;;4.33;;
12774;SDS011;6451;42.630;23.382;2023-05-07T00:04:35;5.10;;;4.03;;
12774;SDS011;6451;42.630;23.382;2023-05-07T00:07:05;6.43;;;4.40;;
12774;SDS011;6451;42.630;23.382;2023-05-07T00:09:32;6.07;;;4.40;;
12774;SDS011;6451;42.630;23.382;2023-05-07T00:11:59;4.57;;;4.07;;
12774;SDS011;6451;42.630;23.382;2023-05-07T00:14:27;4.97;;;4.27;;
12774;SDS011;6451;42.630;23.382;2023-05-07T00:16:54;5.67;;;4.50;;
12774;SDS011;6451;42.630;23.382;2023-05-07T00:19:25;5.43;;;4.83;;
12774;SDS011;6451;42.630;23.382;2023-05-07T00:21:52;6.93;;;4.57;;
12774;SDS011;6451;42.630;23.382;2023-05-07T00:24:22;7.43;;;5.80;;
12774;SDS011;6451;42.630;23.382;2023-05-07T00:26:49;5.40;;;4.90;;
12774;SDS011;6451;42.630;23.382;2023-05-07T00:29:16;6.73;;;6.13;;
12774;SDS011;6451;42.630;23.382;2023-05-07T00:31:44;8.27;;;6.60;;
12774;SDS011;6451;42.630;23.382;2023-05-07T00:34:11;7.70;;;6.67;;
12774;SDS011;6451;42.630;23.382;2023-05-07T00:36:39;8.03;;;6.70;;
12774;SDS011;6451;42.630;23.382;2023-05-07T00:39:06;9.17;;;6.60;;
12774;SDS011;6451;42.630;23.382;2023-05-07T00:41:33;10.00;;;7.43;;
12774;SDS011;6451;42.630;23.382;2023-05-07T00:44:00;9.97;;;7.90;;
12774;SDS011;6451;42.630;23.382;2023-05-07T00:46:27;10.13;;;7.17;;
12774;SDS011;6451;42.630;23.382;2023-05-07T00:48:55;7.23;;;5.57;;
12774;SDS011;6451;42.630;23.382;2023-05-07T00:51:22;5.97;;;4.60;;
12774;SDS011;6451;42.630;23.382;2023-05-07T00:53:53;7.13;;;4.97;;
12774;SDS011;6451;42.630;23.382;2023-05-07T00:56:21;5.80;;;4.57;;
12774;SDS011;6451;42.630;23.382;2023-05-07T00:58:48;8.40;;;5.03;;
12774;SDS011;6451;42.630;23.382;2023-05-07T01:01:15;7.63;;;4.80;;
12774;SDS011;6451;42.630;23.382;2023-05-07T01:03:42;5.27;;;4.77;;
12774;SDS011;6451;42.630;23.382;2023-05-07T01:06:09;4.93;;;4.43;;
12774;SDS011;6451;42.630;23.382;2023-05-07T01:08:38;5.83;;;5.00;;
12774;SDS011;6451;42.630;23.382;2023-05-07T01:11:08;6.10;;;5.00;;
12774;SDS011;6451;42.630;23.382;2023-05-07T01:13:37;6.93;;;5.20;;
12774;SDS011;6451;42.630;23.382;2023-05-07T01:16:05;6.53;;;5.23;;
12774;SDS011;6451;42.630;23.382;2023-05-07T01:18:33;5.40;;;4.90;;
12774;SDS011;6451;42.630;23.382;2023-05-07T01:21:00;9.13;;;5.50;;
12774;SDS011;6451;42.630;23.382;2023-05-07T01:23:31;8.70;;;6.00;;
12774;SDS011;6451;42.630;23.382;2023-05-07T01:26:00;6.73;;;5.40;;
12774;SDS011;6451;42.630;23.382;2023-05-07T01:28:27;6.33;;;5.73;;
12774;SDS011;6451;42.630;23.382;2023-05-07T01:30:55;6.67;;;5.67;;
12774;SDS011;6451;42.630;23.382;2023-05-07T01:33:28;8.47;;;6.20;;
12774;SDS011;6451;42.630;23.382;2023-05-07T01:35:58;8.67;;;6.10;;
12774;SDS011;6451;42.630;23.382;2023-05-07T01:38:28;7.33;;;5.93;;
12774;SDS011;6451;42.630;23.382;2023-05-07T01:40:57;6.77;;;6.17;;
12774;SDS011;6451;42.630;23.382;2023-05-07T01:43:25;10.63;;;7.00;;
12774;SDS011;6451;42.630;23.382;2023-05-07T01:45:52;8.00;;;7.20;;
12774;SDS011;6451;42.630;23.382;2023-05-07T01:48:20;8.60;;;7.70;;
12774;SDS011;6451;42.630;23.382;2023-05-07T01:50:47;8.87;;;7.97;;
12774;SDS011;6451;42.630;23.382;2023-05-07T01:53:15;8.50;;;7.60;;
12774;SDS011;6451;42.630;23.382;2023-05-07T01:55:42;9.50;;;7.50;;
12774;SDS011;6451;42.630;23.382;2023-05-07T01:58:10;8.53;;;7.63;;
12774;SDS011;6451;42.630;23.382;2023-05-07T02:00:37;9.77;;;8.87;;
12774;SDS011;6451;42.630;23.382;2023-05-07T02:03:04;9.60;;;8.60;;
12774;SDS011;6451;42.630;23.382;2023-05-07T02:05:31;9.73;;;8.70;;
12774;SDS011;6451;42.630;23.382;2023-05-07T02:07:58;9.97;;;8.90;;
12774;SDS011;6451;42.630;23.382;2023-05-07T02:10:25;9.57;;;8.60;;
12774;SDS011;6451;42.630;23.382;2023-05-07T02:12:52;9.77;;;8.77;;
12774;SDS011;6451;42.630;23.382;2023-05-07T02:15:20;13.33;;;8.87;;
12774;SDS011;6451;42.630;23.382;2023-05-07T02:17:59;9.73;;;8.83;;
12774;SDS011;6451;42.630;23.382;2023-05-07T02:20:27;13.57;;;9.07;;
12774;SDS011;6451;42.630;23.382;2023-05-07T02:22:54;9.33;;;8.43;;
12774;SDS011;6451;42.630;23.382;2023-05-07T02:25:21;9.97;;;8.97;;
12774;SDS011;6451;42.630;23.382;2023-05-07T02:27:48;12.37;;;9.30;;
12774;SDS011;6451;42.630;23.382;2023-05-07T02:30:16;10.37;;;9.20;;
12774;SDS011;6451;42.630;23.382;2023-05-07T02:32:45;10.07;;;9.13;;
12774;SDS011;6451;42.630;23.382;2023-05-07T02:35:12;11.33;;;9.77;;
12774;SDS011;6451;42.630;23.382;2023-05-07T02:37:39;11.47;;;9.60;;
12774;SDS011;6451;42.630;23.382;2023-05-07T02:40:06;11.73;;;9.67;;
12774;SDS011;6451;42.630;23.382;2023-05-07T02:42:34;10.93;;;9.83;;
12774;SDS011;6451;42.630;23.382;2023-05-07T02:45:01;10.10;;;9.10;;
12774;SDS011;6451;42.630;23.382;2023-05-07T02:47:28;10.70;;;9.30;;
12774;SDS011;6451;42.630;23.382;2023-05-07T02:49:56;10.77;;;9.63;;
12774;SDS011;6451;42.630;23.382;2023-05-07T02:52:23;12.37;;;10.20;;
12774;SDS011;6451;42.630;23.382;2023-05-07T02:54:50;11.33;;;10.13;;
12774;SDS011;6451;42.630;23.382;2023-05-07T02:57:17;12.90;;;11.10;;
12774;SDS011;6451;42.630;23.382;2023-05-07T02:59:44;11.83;;;10.57;;
12774;SDS011;6451;42.630;23.382;2023-05-07T03:02:12;12.90;;;11.50;;
12774;SDS011;6451;42.630;23.382;2023-05-07T03:04:39;13.90;;;12.53;;
12774;SDS011;6451;42.630;23.382;2023-05-07T03:07:08;14.57;;;12.03;;
12774;SDS011;6451;42.630;23.382;2023-05-07T03:09:35;14.90;;;13.17;;
12774;SDS011;6451;42.630;23.382;2023-05-07T03:12:03;16.33;;;13.50;;
12774;SDS011;6451;42.630;23.382;2023-05-07T03:14:30;15.83;;;13.30;;
12774;SDS011;6451;42.630;23.382;2023-05-07T03:16:57;13.60;;;12.30;;
12774;SDS011;6451;42.630;23.382;2023-05-07T03:19:24;14.60;;;13.10;;
12774;SDS011;6451;42.630;23.382;2023-05-07T03:21:51;14.73;;;13.23;;
12774;SDS011;6451;42.630;23.382;2023-05-07T03:24:19;15.57;;;13.97;;
12774;SDS011;6451;42.630;23.382;2023-05-07T03:26:46;16.07;;;14.37;;
12774;SDS011;6451;42.630;23.382;2023-05-07T03:29:13;15.47;;;13.87;;
12774;SDS011;6451;42.630;23.382;2023-05-07T03:31:40;16.53;;;14.70;;
12774;SDS011;6451;42.630;23.382;2023-05-07T03:34:07;16.97;;;14.43;;
12774;SDS011;6451;42.630;23.382;2023-05-07T03:36:34;16.63;;;14.13;;
12774;SDS011;6451;42.630;23.382;2023-05-07T03:39:01;15.97;;;14.30;;
12774;SDS011;6451;42.630;23.382;2023-05-07T03:41:29;17.90;;;14.37;;
12774;SDS011;6451;42.630;23.382;2023-05-07T03:43:56;19.17;;;15.53;;
12774;SDS011;6451;42.630;23.382;2023-05-07T03:46:23;17.77;;;14.37;;
12774;SDS011;6451;42.630;23.382;2023-05-07T03:48:51;17.13;;;14.30;;
12774;SDS011;6451;42.630;23.382;2023-05-07T03:51:18;16.43;;;14.13;;
12774;SDS011;6451;42.630;23.382;2023-05-07T03:53:47;15.57;;;13.33;;
12774;SDS011;6451;42.630;23.382;2023-05-07T03:56:14;14.90;;;13.30;;
12774;SDS011;6451;42.630;23.382;2023-05-07T03:58:42;14.63;;;12.97;;
12774;SDS011;6451;42.630;23.382;2023-05-07T04:01:09;16.40;;;13.70;;
12774;SDS011;6451;42.630;23.382;2023-05-07T04:03:36;15.27;;;13.67;;
12774;SDS011;6451;42.630;23.382;2023-05-07T04:06:03;15.47;;;13.70;;
12774;SDS011;6451;42.630;23.382;2023-05-07T04:08:30;14.33;;;12.93;;
12774;SDS011;6451;42.630;23.382;2023-05-07T04:10:58;15.83;;;13.67;;
12774;SDS011;6451;42.630;23.382;2023-05-07T04:13:25;14.57;;;13.07;;
12774;SDS011;6451;42.630;23.382;2023-05-07T04:15:54;14.80;;;13.17;;
12774;SDS011;6451;42.630;23.382;2023-05-07T04:18:21;14.40;;;12.77;;
12774;SDS011;6451;42.630;23.382;2023-05-07T04:20:48;14.80;;;12.90;;
12774;SDS011;6451;42.630;23.382;2023-05-07T04:23:15;13.77;;;12.33;;
12774;SDS011;6451;42.630;23.382;2023-05-07T04:25:42;14.07;;;12.67;;
12774;SDS011;6451;42.630;23.382;2023-05-07T04:28:10;15.17;;;12.50;;
12774;SDS011;6451;42.630;23.382;2023-05-07T04:30:37;14.87;;;12.33;;
12774;SDS011;6451;42.630;23.382;2023-05-07T04:33:06;15.57;;;13.37;;
12774;SDS011;6451;42.630;23.382;2023-05-07T04:35:33;14.00;;;12.57;;
12774;SDS011;6451;42.630;23.382;2023-05-07T04:38:01;15.40;;;13.30;;
12774;SDS011;6451;42.630;23.382;2023-05-07T04:40:28;14.33;;;12.83;;
12774;SDS011;6451;42.630;23.382;2023-05-07T04:42:55;14.33;;;12.60;;
12774;SDS011;6451;42.630;23.382;2023-05-07T04:45:22;15.33;;;12.83;;
12774;SDS011;6451;42.630;23.382;2023-05-07T04:47:49;14.57;;;12.83;;
12774;SDS011;6451;42.630;23.382;2023-05-07T04:50:18;14.97;;;12.50;;
12774;SDS011;6451;42.630;23.382;2023-05-07T04:52:45;16.17;;;12.83;;
12774;SDS011;6451;42.630;23.382;2023-05-07T04:55:12;14.73;;;12.60;;
12774;SDS011;6451;42.630;23.382;2023-05-07T04:57:39;13.87;;;12.20;;
12774;SDS011;6451;42.630;23.382;2023-05-07T05:00:06;13.50;;;12.10;;
12774;SDS011;6451;42.630;23.382;2023-05-07T05:02:36;15.53;;;11.70;;
12774;SDS011;6451;42.630;23.382;2023-05-07T05:05:03;13.10;;;11.20;;
12774;SDS011;6451;42.630;23.382;2023-05-07T05:07:32;13.27;;;11.73;;
12774;SDS011;6451;42.630;23.382;2023-05-07T05:09:59;13.70;;;11.93;;
12774;SDS011;6451;42.630;23.382;2023-05-07T05:12:26;12.83;;;11.53;;
12774;SDS011;6451;42.630;23.382;2023-05-07T05:14:53;12.30;;;11.00;;
12774;SDS011;6451;42.630;23.382;2023-05-07T05:17:20;13.07;;;11.52;;
12774;SDS011;6451;42.630;23.382;2023-05-07T05:19:48;14.87;;;11.87;;
12774;SDS011;6451;42.630;23.382;2023-05-07T05:22:17;12.90;;;11.60;;
12774;SDS011;6451;42.630;23.382;2023-05-07T05:24:46;12.43;;;11.13;;
12774;SDS011;6451;42.630;23.382;2023-05-07T05:27:13;14.50;;;12.07;;
12774;SDS011;6451;42.630;23.382;2023-05-07T05:29:40;12.90;;;11.50;;
12774;SDS011;6451;42.630;23.382;2023-05-07T05:32:07;13.60;;;10.90;;
12774;SDS011;6451;42.630;23.382;2023-05-07T05:34:34;13.53;;;11.90;;
12774;SDS011;6451;42.630;23.382;2023-05-07T05:37:11;13.38;;;11.32;;
12774;SDS011;6451;42.630;23.382;2023-05-07T05:39:39;12.90;;;11.10;;
12774;SDS011;6451;42.630;23.382;2023-05-07T05:42:08;12.48;;;11.18;;
12774;SDS011;6451;42.630;23.382;2023-05-07T05:44:35;12.88;;;11.65;;
12774;SDS011;6451;42.630;23.382;2023-05-07T05:47:02;12.27;;;10.90;;
12774;SDS011;6451;42.630;23.382;2023-05-07T05:49:29;11.68;;;10.48;;
12774;SDS011;6451;42.630;23.382;2023-05-07T05:51:56;11.18;;;9.98;;
12774;SDS011;6451;42.630;23.382;2023-05-07T05:54:23;11.02;;;9.93;;
12774;SDS011;6451;42.630;23.382;2023-05-07T05:56:51;13.20;;;9.90;;
12774;SDS011;6451;42.630;23.382;2023-05-07T05:59:19;11.38;;;10.27;;
12774;SDS011;6451;42.630;23.382;2023-05-07T06:01:46;13.00;;;9.43;;
12774;SDS011;6451;42.630;23.382;2023-05-07T06:04:13;13.40;;;9.77;;
12774;SDS011;6451;42.630;23.382;2023-05-07T06:06:40;10.15;;;9.15;;
12774;SDS011;6451;42.630;23.382;2023-05-07T06:09:07;11.30;;;9.27;;
12774;SDS011;6451;42.630;23.382;2023-05-07T06:11:35;10.65;;;9.55;;
12774;SDS011;6451;42.630;23.382;2023-05-07T06:14:02;10.98;;;9.88;;
12774;SDS011;6451;42.630;23.382;2023-05-07T06:16:30;10.65;;;9.55;;
12774;SDS011;6451;42.630;23.382;2023-05-07T06:18:57;10.07;;;9.07;;
12774;SDS011;6451;42.630;23.382;2023-05-07T06:21:24;11.98;;;10.00;;
12774;SDS011;6451;42.630;23.382;2023-05-07T06:23:51;11.02;;;9.93;;
12774;SDS011;6451;42.630;23.382;2023-05-07T06:26:20;11.35;;;9.75;;
12774;SDS011;6451;42.630;23.382;2023-05-07T06:28:59;11.10;;;9.90;;
12774;SDS011;6451;42.630;23.382;2023-05-07T06:31:51;10.52;;;9.50;;
12774;SDS011;6451;42.630;23.382;2023-05-07T06:34:43;10.02;;;8.75;;
12774;SDS011;6451;42.630;23.382;2023-05-07T06:37:10;10.00;;;9.00;;
12774;SDS011;6451;42.630;23.382;2023-05-07T06:39:37;10.65;;;9.45;;
12774;SDS011;6451;42.630;23.382;2023-05-07T06:42:04;10.15;;;9.15;;
12774;SDS011;6451;42.630;23.382;2023-05-07T06:44:31;10.65;;;8.68;;
12774;SDS011;6451;42.630;23.382;2023-05-07T06:46:59;11.73;;;8.85;;
12774;SDS011;6451;42.630;23.382;2023-05-07T06:49:26;8.98;;;8.07;;
12774;SDS011;6451;42.630;23.382;2023-05-07T06:51:56;9.02;;;8.10;;
12774;SDS011;6451;42.630;23.382;2023-05-07T06:54:23;9.63;;;7.80;;
12774;SDS011;6451;42.630;23.382;2023-05-07T06:56:51;9.75;;;8.75;;
12774;SDS011;6451;42.630;23.382;2023-05-07T06:59:18;10.43;;;8.43;;
12774;SDS011;6451;42.630;23.382;2023-05-07T07:01:45;11.38;;;7.72;;
12774;SDS011;6451;42.630;23.382;2023-05-07T07:04:13;9.32;;;7.90;;
12774;SDS011;6451;42.630;23.382;2023-05-07T07:06:41;9.25;;;8.00;;
12774;SDS011;6451;42.630;23.382;2023-05-07T07:09:08;10.63;;;8.02;;
12774;SDS011;6451;42.630;23.382;2023-05-07T07:11:35;10.60;;;8.40;;
12774;SDS011;6451;42.630;23.382;2023-05-07T07:14:04;9.80;;;8.30;;
12774;SDS011;6451;42.630;23.382;2023-05-07T07:16:31;9.73;;;7.97;;
12774;SDS011;6451;42.630;23.382;2023-05-07T07:18:58;9.02;;;7.90;;
12774;SDS011;6451;42.630;23.382;2023-05-07T07:21:27;8.90;;;7.97;;
12774;SDS011;6451;42.630;23.382;2023-05-07T07:23:54;10.82;;;8.35;;
12774;SDS011;6451;42.630;23.382;2023-05-07T07:26:21;10.75;;;8.40;;
12774;SDS011;6451;42.630;23.382;2023-05-07T07:28:48;9.15;;;8.10;;
12774;SDS011;6451;42.630;23.382;2023-05-07T07:31:14;9.10;;;8.15;;
12774;SDS011;6451;42.630;23.382;2023-05-07T07:33:42;9.27;;;8.38;;
12774;SDS011;6451;42.630;23.382;2023-05-07T07:36:09;9.23;;;8.20;;
12774;SDS011;6451;42.630;23.382;2023-05-07T07:38:37;9.20;;;8.35;;
12774;SDS011;6451;42.630;23.382;2023-05-07T07:41:04;10.35;;;8.68;;
12774;SDS011;6451;42.630;23.382;2023-05-07T07:43:31;10.57;;;9.10;;
12774;SDS011;6451;42.630;23.382;2023-05-07T07:45:58;10.30;;;8.30;;
12774;SDS011;6451;42.630;23.382;2023-05-07T07:48:25;11.65;;;7.97;;
12774;SDS011;6451;42.630;23.382;2023-05-07T07:50:52;8.77;;;7.93;;
12774;SDS011;6451;42.630;23.382;2023-05-07T07:53:19;8.63;;;7.80;;
12774;SDS011;6451;42.630;23.382;2023-05-07T07:58:16;11.25;;;7.65;;
12774;SDS011;6451;42.630;23.382;2023-05-07T08:00:43;8.93;;;8.02;;
12774;SDS011;6451;42.630;23.382;2023-05-07T08:03:10;8.93;;;8.10;;
12774;SDS011;6451;42.630;23.382;2023-05-07T08:05:37;9.68;;;8.07;;
12774;SDS011;6451;42.630;23.382;2023-05-07T08:08:04;13.07;;;7.95;;
12774;SDS011;6451;42.630;23.382;2023-05-07T08:10:32;9.05;;;7.20;;
12774;SDS011;6451;42.630;23.382;2023-05-07T08:13:00;9.50;;;8.07;;
12774;SDS011;6451;42.630;23.382;2023-05-07T08:15:30;8.55;;;7.70;;
12774;SDS011;6451;42.630;23.382;2023-05-07T08:17:57;8.68;;;7.78;;
12774;SDS011;6451;42.630;23.382;2023-05-07T08:20:25;13.63;;;8.32;;
12774;SDS011;6451;42.630;23.382;2023-05-07T08:22:52;9.93;;;8.15;;
12774;SDS011;6451;42.630;23.382;2023-05-07T08:25:20;9.35;;;8.02;;
12774;SDS011;6451;42.630;23.382;2023-05-07T08:27:47;10.85;;;7.55;;
12774;SDS011;6451;42.630;23.382;2023-05-07T08:30:14;9.40;;;8.10;;
12774;SDS011;6451;42.630;23.382;2023-05-07T08:32:43;8.63;;;7.80;;
12774;SDS011;6451;42.630;23.382;2023-05-07T08:35:11;8.85;;;7.93;;
12774;SDS011;6451;42.630;23.382;2023-05-07T08:37:38;8.75;;;7.25;;
12774;SDS011;6451;42.630;23.382;2023-05-07T08:40:05;10.18;;;7.10;;
12774;SDS011;6451;42.630;23.382;2023-05-07T08:42:35;10.10;;;7.45;;
12774;SDS011;6451;42.630;23.382;2023-05-07T08:45:03;6.40;;;5.80;;
12774;SDS011;6451;42.630;23.382;2023-05-07T08:47:44;9.05;;;8.13;;
12774;SDS011;6451;42.630;23.382;2023-05-07T08:50:16;9.32;;;6.78;;
12774;SDS011;6451;42.630;23.382;2023-05-07T08:52:44;7.15;;;6.40;;
12774;SDS011;6451;42.630;23.382;2023-05-07T08:55:11;8.90;;;6.30;;
12774;SDS011;6451;42.630;23.382;2023-05-07T08:57:42;6.68;;;5.93;;
12774;SDS011;6451;42.630;23.382;2023-05-07T09:00:09;6.18;;;5.32;;
12774;SDS011;6451;42.630;23.382;2023-05-07T09:02:37;5.57;;;5.07;;
12774;SDS011;6451;42.630;23.382;2023-05-07T09:05:06;9.02;;;6.38;;
12774;SDS011;6451;42.630;23.382;2023-05-07T09:07:34;7.57;;;6.43;;
12774;SDS011;6451;42.630;23.382;2023-05-07T09:10:01;5.40;;;4.90;;
12774;SDS011;6451;42.630;23.382;2023-05-07T09:12:29;9.55;;;6.05;;
12774;SDS011;6451;42.630;23.382;2023-05-07T09:14:56;7.53;;;6.20;;
12774;SDS011;6451;42.630;23.382;2023-05-07T09:17:23;8.90;;;5.60;;
12774;SDS011;6451;42.630;23.382;2023-05-07T09:19:50;6.00;;;5.13;;
12774;SDS011;6451;42.630;23.382;2023-05-07T09:22:20;7.80;;;5.03;;
12774;SDS011;6451;42.630;23.382;2023-05-07T09:24:47;6.55;;;5.68;;
12774;SDS011;6451;42.630;23.382;2023-05-07T09:27:14;6.10;;;5.05;;
12774;SDS011;6451;42.630;23.382;2023-05-07T09:29:42;6.20;;;4.72;;
12774;SDS011;6451;42.630;23.382;2023-05-07T09:32:09;7.07;;;5.20;;
12774;SDS011;6451;42.630;23.382;2023-05-07T09:34:37;6.28;;;4.82;;
12774;SDS011;6451;42.630;23.382;2023-05-07T09:37:04;4.80;;;4.40;;
12774;SDS011;6451;42.630;23.382;2023-05-07T09:39:39;5.32;;;4.68;;
12774;SDS011;6451;42.630;23.382;2023-05-07T09:42:07;6.63;;;4.60;;
12774;SDS011;6451;42.630;23.382;2023-05-07T09:44:35;7.82;;;4.55;;
12774;SDS011;6451;42.630;23.382;2023-05-07T09:47:04;5.00;;;4.50;;
12774;SDS011;6451;42.630;23.382;2023-05-07T09:49:33;4.95;;;4.30;;
12774;SDS011;6451;42.630;23.382;2023-05-07T09:52:01;5.65;;;4.40;;
12774;SDS011;6451;42.630;23.382;2023-05-07T09:54:31;6.93;;;4.43;;
12774;SDS011;6451;42.630;23.382;2023-05-07T09:57:00;6.82;;;4.20;;
12774;SDS011;6451;42.630;23.382;2023-05-07T09:59:28;5.63;;;4.75;;
12774;SDS011;6451;42.630;23.382;2023-05-07T10:01:56;6.80;;;4.78;;
12774;SDS011;6451;42.630;23.382;2023-05-07T10:04:24;6.30;;;4.80;;
12774;SDS011;6451;42.630;23.382;2023-05-07T10:06:52;5.05;;;4.55;;
12774;SDS011;6451;42.630;23.382;2023-05-07T10:09:21;7.28;;;4.35;;
12774;SDS011;6451;42.630;23.382;2023-05-07T10:11:50;5.88;;;4.22;;
12774;SDS011;6451;42.630;23.382;2023-05-07T10:14:20;5.75;;;4.00;;
12774;SDS011;6451;42.630;23.382;2023-05-07T10:16:47;5.25;;;4.05;;
12774;SDS011;6451;42.630;23.382;2023-05-07T10:19:14;7.53;;;4.20;;
12774;SDS011;6451;42.630;23.382;2023-05-07T10:21:43;4.93;;;4.43;;
12774;SDS011;6451;42.630;23.382;2023-05-07T10:24:16;5.18;;;4.57;;
12774;SDS011;6451;42.630;23.382;2023-05-07T10:26:48;6.28;;;4.57;;
12774;SDS011;6451;42.630;23.382;2023-05-07T10:29:18;4.85;;;4.35;;
12774;SDS011;6451;42.630;23.382;2023-05-07T10:31:57;4.50;;;4.10;;
12774;SDS011;6451;42.630;23.382;2023-05-07T10:34:32;5.03;;;3.65;;
12774;SDS011;6451;42.630;23.382;2023-05-07T10:37:02;8.45;;;4.32;;
12774;SDS011;6451;42.630;23.382;2023-05-07T10:39:30;4.95;;;4.20;;
12774;SDS011;6451;42.630;23.382;2023-05-07T10:42:00;7.35;;;4.20;;
12774;SDS011;6451;42.630;23.382;2023-05-07T10:44:35;7.78;;;4.60;;
12774;SDS011;6451;42.630;23.382;2023-05-07T10:47:04;6.35;;;4.00;;
12774;SDS011;6451;42.630;23.382;2023-05-07T10:49:35;7.40;;;4.00;;
12774;SDS011;6451;42.630;23.382;2023-05-07T10:52:12;5.72;;;4.30;;
12774;SDS011;6451;42.630;23.382;2023-05-07T10:54:43;4.88;;;4.20;;
12774;SDS011;6451;42.630;23.382;2023-05-07T11:00:02;5.65;;;4.60;;
12774;SDS011;6451;42.630;23.382;2023-05-07T11:05:31;4.95;;;4.50;;
12774;SDS011;6451;42.630;23.382;2023-05-07T11:07:59;6.30;;;4.10;;
12774;SDS011;6451;42.630;23.382;2023-05-07T11:13:17;6.20;;;4.32;;
12774;SDS011;6451;42.630;23.382;2023-05-07T11:15:47;5.35;;;4.25;;
12774;SDS011;6451;42.630;23.382;2023-05-07T11:18:15;5.07;;;4.40;;
12774;SDS011;6451;42.630;23.382;2023-05-07T11:20:45;5.22;;;4.30;;
12774;SDS011;6451;42.630;23.382;2023-05-07T11:26:28;6.00;;;4.60;;
12774;SDS011;6451;42.630;23.382;2023-05-07T11:28:56;4.95;;;4.45;;
12774;SDS011;6451;42.630;23.382;2023-05-07T11:31:27;4.97;;;4.47;;
12774;SDS011;6451;42.630;23.382;2023-05-07T11:33:55;5.47;;;4.30;;
12774;SDS011;6451;42.630;23.382;2023-05-07T11:36:22;6.68;;;4.63;;
12774;SDS011;6451;42.630;23.382;2023-05-07T11:38:50;6.32;;;4.60;;
12774;SDS011;6451;42.630;23.382;2023-05-07T11:41:18;4.75;;;4.10;;
12774;SDS011;6451;42.630;23.382;2023-05-07T11:43:59;4.53;;;4.13;;
12774;SDS011;6451;42.630;23.382;2023-05-07T11:46:28;4.72;;;4.25;;
12774;SDS011;6451;42.630;23.382;2023-05-07T11:48:55;5.03;;;4.05;;
12774;SDS011;6451;42.630;23.382;2023-05-07T11:51:22;5.07;;;4.30;;
12774;SDS011;6451;42.630;23.382;2023-05-07T11:53:53;5.03;;;4.13;;
12774;SDS011;6451;42.630;23.382;2023-05-07T11:56:20;4.95;;;4.43;;
12774;SDS011;6451;42.630;23.382;2023-05-07T11:58:47;5.75;;;4.43;;
12774;SDS011;6451;42.630;23.382;2023-05-07T12:01:14;4.47;;;4.07;;
12774;SDS011;6451;42.630;23.382;2023-05-07T12:03:45;7.32;;;4.43;;
12774;SDS011;6451;42.630;23.382;2023-05-07T12:06:14;6.60;;;4.55;;
12774;SDS011;6451;42.630;23.382;2023-05-07T12:08:43;4.88;;;4.28;;
12774;SDS011;6451;42.630;23.382;2023-05-07T12:11:13;4.47;;;4.10;;
12774;SDS011;6451;42.630;23.382;2023-05-07T12:13:42;5.97;;;4.28;;
12774;SDS011;6451;42.630;23.382;2023-05-07T12:16:09;4.88;;;4.47;;
12774;SDS011;6451;42.630;23.382;2023-05-07T12:18:37;6.22;;;4.43;;
12774;SDS011;6451;42.630;23.382;2023-05-07T12:21:08;7.45;;;4.35;;
12774;SDS011;6451;42.630;23.382;2023-05-07T12:23:36;7.07;;;6.38;;
12774;SDS011;6451;42.630;23.382;2023-05-07T12:26:03;4.47;;;4.00;;
12774;SDS011;6451;42.630;23.382;2023-05-07T12:28:36;4.82;;;4.32;;
12774;SDS011;6451;42.630;23.382;2023-05-07T12:31:04;4.80;;;4.30;;
12774;SDS011;6451;42.630;23.382;2023-05-07T12:33:31;5.10;;;4.63;;
12774;SDS011;6451;42.630;23.382;2023-05-07T12:35:58;5.55;;;4.20;;
12774;SDS011;6451;42.630;23.382;2023-05-07T12:38:35;6.15;;;4.15;;
12774;SDS011;6451;42.630;23.382;2023-05-07T12:41:04;4.53;;;4.10;;
12774;SDS011;6451;42.630;23.382;2023-05-07T12:43:32;5.03;;;4.13;;
12774;SDS011;6451;42.630;23.382;2023-05-07T12:46:01;5.55;;;4.70;;
12774;SDS011;6451;42.630;23.382;2023-05-07T12:48:31;4.10;;;3.70;;
12774;SDS011;6451;42.630;23.382;2023-05-07T12:50:59;5.10;;;4.10;;
12774;SDS011;6451;42.630;23.382;2023-05-07T12:53:27;4.50;;;4.10;;
12774;SDS011;6451;42.630;23.382;2023-05-07T12:55:56;4.68;;;4.07;;
12774;SDS011;6451;42.630;23.382;2023-05-07T12:58:25;4.60;;;4.20;;
12774;SDS011;6451;42.630;23.382;2023-05-07T13:00:53;4.10;;;3.70;;
12774;SDS011;6451;42.630;23.382;2023-05-07T13:03:24;4.00;;;3.60;;
12774;SDS011;6451;42.630;23.382;2023-05-07T13:05:53;5.05;;;3.92;;
12774;SDS011;6451;42.630;23.382;2023-05-07T13:08:25;5.28;;;3.67;;
12774;SDS011;6451;42.630;23.382;2023-05-07T13:10:52;5.00;;;3.90;;
12774;SDS011;6451;42.630;23.382;2023-05-07T13:13:21;4.18;;;3.75;;
12774;SDS011;6451;42.630;23.382;2023-05-07T13:15:48;11.40;;;10.32;;
12774;SDS011;6451;42.630;23.382;2023-05-07T13:18:15;6.43;;;5.32;;
12774;SDS011;6451;42.630;23.382;2023-05-07T13:20:42;4.68;;;3.95;;
12774;SDS011;6451;42.630;23.382;2023-05-07T13:23:09;3.92;;;3.60;;
12774;SDS011;6451;42.630;23.382;2023-05-07T13:25:35;5.60;;;3.85;;
12774;SDS011;6451;42.630;23.382;2023-05-07T13:28:02;3.90;;;3.50;;
12774;SDS011;6451;42.630;23.382;2023-05-07T13:30:31;4.10;;;3.60;;
12774;SDS011;6451;42.630;23.382;2023-05-07T13:32:58;3.30;;;3.00;;
12774;SDS011;6451;42.630;23.382;2023-05-07T13:35:25;4.45;;;3.00;;
12774;SDS011;6451;42.630;23.382;2023-05-07T13:37:52;4.15;;;2.78;;
12774;SDS011;6451;42.630;23.382;2023-05-07T13:40:20;3.33;;;2.92;;
12774;SDS011;6451;42.630;23.382;2023-05-07T13:42:47;5.10;;;2.75;;
12774;SDS011;6451;42.630;23.382;2023-05-07T13:45:15;3.17;;;2.88;;
12774;SDS011;6451;42.630;23.382;2023-05-07T13:47:44;5.45;;;2.97;;
12774;SDS011;6451;42.630;23.382;2023-05-07T13:50:11;3.90;;;3.30;;
12774;SDS011;6451;42.630;23.382;2023-05-07T13:52:40;3.38;;;2.80;;
12774;SDS011;6451;42.630;23.382;2023-05-07T13:55:11;5.60;;;2.70;;
12774;SDS011;6451;42.630;23.382;2023-05-07T13:57:37;3.40;;;2.90;;
12774;SDS011;6451;42.630;23.382;2023-05-07T14:00:06;4.28;;;2.70;;
12774;SDS011;6451;42.630;23.382;2023-05-07T14:02:33;3.10;;;2.80;;
12774;SDS011;6451;42.630;23.382;2023-05-07T14:05:01;3.38;;;2.72;;
12774;SDS011;6451;42.630;23.382;2023-05-07T14:07:29;5.13;;;4.00;;
12774;SDS011;6451;42.630;23.382;2023-05-07T14:09:56;4.05;;;3.13;;
12774;SDS011;6451;42.630;23.382;2023-05-07T14:12:24;4.88;;;3.25;;
12774;SDS011;6451;42.630;23.382;2023-05-07T14:14:51;3.20;;;2.90;;
12774;SDS011;6451;42.630;23.382;2023-05-07T14:17:18;4.05;;;2.92;;
12774;SDS011;6451;42.630;23.382;2023-05-07T14:19:45;2.97;;;2.70;;
12774;SDS011;6451;42.630;23.382;2023-05-07T14:22:14;3.00;;;2.80;;
12774;SDS011;6451;42.630;23.382;2023-05-07T14:24:41;3.10;;;2.80;;
12774;SDS011;6451;42.630;23.382;2023-05-07T14:27:08;5.32;;;2.80;;
12774;SDS011;6451;42.630;23.382;2023-05-07T14:29:35;4.45;;;2.90;;
12774;SDS011;6451;42.630;23.382;2023-05-07T14:32:02;7.32;;;2.80;;
12774;SDS011;6451;42.630;23.382;2023-05-07T14:34:30;2.80;;;2.58;;
12774;SDS011;6451;42.630;23.382;2023-05-07T14:36:57;3.92;;;2.60;;
12774;SDS011;6451;42.630;23.382;2023-05-07T14:39:26;5.20;;;2.70;;
12774;SDS011;6451;42.630;23.382;2023-05-07T14:41:52;3.63;;;3.20;;
12774;SDS011;6451;42.630;23.382;2023-05-07T14:44:21;4.28;;;3.00;;
12774;SDS011;6451;42.630;23.382;2023-05-07T14:46:48;3.75;;;3.30;;
12774;SDS011;6451;42.630;23.382;2023-05-07T14:49:14;4.30;;;2.90;;
12774;SDS011;6451;42.630;23.382;2023-05-07T14:51:43;5.75;;;3.05;;
12774;SDS011;6451;42.630;23.382;2023-05-07T14:54:10;3.67;;;3.05;;
12774;SDS011;6451;42.630;23.382;2023-05-07T14:56:39;3.97;;;3.20;;
12774;SDS011;6451;42.630;23.382;2023-05-07T14:59:06;3.88;;;3.30;;
12774;SDS011;6451;42.630;23.382;2023-05-07T15:01:35;3.00;;;2.70;;